Orbital elements of FLORIPASAT-1
| Launched | 19 December 2019 |
| Flight ended | – |
| Launch site | Taiyuan Space Center, PRC |
| Owner | Brazil |
| NORAD ID | 44885 |
| Date fetched |
Epoch osculation |
Inc. [°] |
Ecc. | RA asc node [hr] |
Arg Peri. [°] |
Mean anom [°] |
Mean motion [rev/day] |
Abs. mag |
| Date fetched |
Epoch osculation |
Inc. [°] |
Ecc. | RA asc node [hr] |
Arg Peri. [°] |
Mean anom [°] |
Mean motion [rev/day] |
Abs. mag |
| 2026 May 07 17:58 | 2026 May 07 05:34:56 | 97.7890 | 0.00113 | 14.7456 | 200.9842 | 159.0922 | 15.03439 | – |
| 2026 May 06 17:57 | 2026 May 06 12:00:41 | 97.7893 | 0.00112 | 14.6965 | 203.0751 | 159.0922 | 15.03439 | – |
| 2026 May 05 17:57 | 2026 May 05 12:03:05 | 97.7896 | 0.00111 | 14.6295 | 206.1054 | 159.0922 | 15.03439 | – |
| 2026 May 04 17:57 | 2026 May 04 12:05:27 | 97.7902 | 0.00109 | 14.5625 | 209.1669 | 159.0922 | 15.03439 | – |
| 2026 May 03 17:57 | 2026 May 03 12:07:49 | 97.7906 | 0.00108 | 14.4956 | 212.2388 | 159.0922 | 15.03439 | – |
| 2026 May 02 17:57 | 2026 May 02 12:10:10 | 97.7907 | 0.00107 | 14.4286 | 215.6300 | 159.0922 | 15.03439 | – |
| 2026 May 01 17:56 | 2026 May 01 12:12:30 | 97.7909 | 0.00106 | 14.3616 | 219.1597 | 159.0922 | 15.03439 | – |
| 2026 Apr 30 17:56 | 2026 Apr 30 12:14:50 | 97.7906 | 0.00105 | 14.2946 | 222.5851 | 159.0922 | 15.03439 | – |
| 2026 Apr 29 17:57 | 2026 Apr 29 12:17:09 | 97.7905 | 0.00104 | 14.2277 | 226.4476 | 159.0922 | 15.03439 | – |
| 2026 Apr 28 17:56 | 2026 Apr 28 12:19:27 | 97.7903 | 0.00103 | 14.1607 | 230.1788 | 159.0922 | 15.03439 | – |
| 2026 Apr 27 17:58 | 2026 Apr 27 12:21:45 | 97.7901 | 0.00102 | 14.0937 | 233.8830 | 159.0922 | 15.03439 | – |
| 2026 Apr 26 17:58 | 2026 Apr 26 12:24:02 | 97.7898 | 0.00102 | 14.0267 | 238.0122 | 159.0922 | 15.03439 | – |
| 2026 Apr 25 17:58 | 2026 Apr 25 12:26:18 | 97.7896 | 0.00102 | 13.9597 | 241.9911 | 159.0922 | 15.03439 | – |
| 2026 Apr 24 17:59 | 2026 Apr 24 12:28:33 | 97.7897 | 0.00102 | 13.8928 | 246.1291 | 159.0922 | 15.03439 | – |
| 2026 Apr 23 17:57 | 2026 Apr 23 06:07:24 | 97.7903 | 0.00103 | 13.8079 | 250.7420 | 159.0922 | 15.03439 | – |
| 2026 Apr 22 17:57 | 2026 Apr 22 12:33:02 | 97.7902 | 0.00103 | 13.7588 | 253.3707 | 159.0922 | 15.03439 | – |
| 2026 Apr 21 17:57 | 2026 Apr 21 09:23:34 | 97.7906 | 0.00104 | 13.6828 | 258.0985 | 159.0922 | 15.03439 | – |
| 2026 Apr 20 17:57 | 2026 Apr 20 11:01:38 | 97.7908 | 0.00104 | 13.6203 | 261.6834 | 159.0922 | 15.03439 | – |
| 2026 Apr 19 17:58 | 2026 Apr 18 17:29:28 | 97.7907 | 0.00106 | 13.5042 | 268.6597 | 159.0922 | 15.03439 | – |
| 2026 Apr 18 17:56 | 2026 Apr 18 06:18:30 | 97.7907 | 0.00107 | 13.4730 | 270.2070 | 159.0922 | 15.03439 | – |
| 2026 Apr 16 17:57 | 2026 Apr 16 06:22:52 | 97.7900 | 0.00108 | 13.3390 | 277.9268 | 159.0922 | 15.03439 | – |
| 2026 Apr 14 17:57 | 2026 Apr 14 12:50:39 | 97.7892 | 0.00109 | 13.2230 | 284.3981 | 159.0922 | 15.03439 | – |
| 2026 Apr 13 17:57 | 2026 Apr 13 06:29:24 | 97.7890 | 0.00110 | 13.1381 | 288.7949 | 159.0922 | 15.03439 | – |
| 2026 Apr 12 17:57 | 2026 Apr 12 11:19:08 | 97.7884 | 0.00111 | 13.0846 | 291.7620 | 159.0922 | 15.03439 | – |
| 2026 Apr 11 17:57 | 2026 Apr 11 12:57:09 | 97.7880 | 0.00111 | 13.0221 | 294.9729 | 159.0922 | 15.03439 | – |
| 2026 Apr 10 17:58 | 2026 Apr 10 05:00:00 | 97.7875 | 0.00112 | 12.9328 | 299.5488 | 159.0922 | 15.03439 | – |